sim
Sign-in with your pilot id or email,
or register
Callsign
Passwort

Schedule Details

Flight Number: RYR8969 (1)
Departure: Thessaloniki International Airport (LGTS) at 06:30
Arrival: Athens Eleftherios Venizelos (LGAV) at 07:30
Route: Ryanair Passenger Schedule. Enter filed route here before submitting Pirep.

Weather Information
Getting current METAR information for LGTS 230650Z 28004KT CAVOK 29/19 Q1020 NOSIG
Getting current METAR information for LGAV 230650Z 01024G37KT CAVOK 29/12 Q1016 NOSIG

Schedule Frequency

Route Map